createdAt,value
2019-04-07T00:00:42.631Z,14.00
2019-04-07T00:05:47.204Z,14.00
2019-04-07T00:10:51.716Z,13.90
2019-04-07T00:15:55.719Z,13.70
2019-04-07T00:20:59.671Z,13.70
2019-04-07T00:26:04.168Z,13.70
2019-04-07T00:31:08.435Z,13.80
2019-04-07T00:36:12.301Z,13.80
2019-04-07T00:41:16.710Z,13.70
2019-04-07T00:46:21.218Z,13.60
2019-04-07T00:51:25.722Z,13.50
2019-04-07T00:56:30.052Z,13.50
2019-04-07T01:01:34.062Z,13.40
2019-04-07T01:06:38.339Z,13.30
2019-04-07T01:11:42.207Z,13.30
2019-04-07T01:16:46.020Z,13.30
2019-04-07T01:21:49.982Z,12.90
2019-04-07T01:26:54.871Z,12.80
2019-04-07T01:31:59.374Z,12.60
2019-04-07T01:37:03.548Z,12.50
2019-04-07T01:42:15.188Z,12.40
2019-04-07T01:47:23.358Z,12.40
2019-04-07T01:52:41.571Z,12.40
2019-04-07T01:58:05.211Z,12.30
2019-04-07T02:03:13.724Z,12.40
2019-04-07T02:08:22.164Z,12.20
2019-04-07T02:13:30.089Z,12.10
2019-04-07T02:18:35.536Z,12.10
2019-04-07T02:23:47.179Z,12.00
2019-04-07T02:28:58.850Z,11.80
2019-04-07T02:34:05.188Z,11.70
2019-04-07T02:39:11.164Z,11.70
2019-04-07T02:44:19.633Z,11.60
2019-04-07T02:49:28.542Z,11.50
2019-04-07T02:54:36.022Z,11.40
2019-04-07T02:59:51.479Z,11.40
2019-04-07T03:05:00.079Z,11.40
2019-04-07T03:10:19.116Z,11.40
2019-04-07T03:15:28.118Z,11.40
2019-04-07T03:20:45.510Z,11.40
2019-04-07T03:26:00.830Z,11.40
2019-04-07T03:31:10.472Z,11.40
2019-04-07T03:36:20.017Z,11.40
2019-04-07T03:41:23.856Z,11.20
2019-04-07T03:46:29.462Z,11.20
2019-04-07T03:51:43.994Z,11.20
2019-04-07T03:57:04.927Z,11.10
2019-04-07T04:02:26.323Z,11.10
2019-04-07T04:07:37.147Z,11.00
2019-04-07T04:12:42.187Z,11.10
2019-04-07T04:17:46.051Z,11.00
2019-04-07T04:22:50.647Z,11.00
2019-04-07T04:27:55.047Z,10.90
2019-04-07T04:32:59.737Z,10.90
2019-04-07T04:38:03.928Z,10.70
2019-04-07T04:43:07.948Z,10.70
2019-04-07T04:48:12.016Z,10.80
2019-04-07T04:53:16.002Z,10.60
2019-04-07T04:58:19.876Z,10.70
2019-04-07T05:03:23.758Z,10.90
2019-04-07T05:08:27.610Z,10.70
2019-04-07T05:13:31.686Z,10.70
2019-04-07T05:18:35.973Z,10.70
2019-04-07T05:23:40.503Z,10.70
2019-04-07T05:28:45.048Z,10.80
2019-04-07T05:33:49.037Z,10.80
2019-04-07T05:38:53.225Z,10.90
2019-04-07T05:43:57.242Z,10.90
2019-04-07T05:49:02.067Z,11.00
2019-04-07T05:54:06.096Z,11.00
2019-04-07T05:59:12.164Z,11.10
2019-04-07T06:04:18.287Z,11.30
2019-04-07T06:09:21.103Z,11.40
2019-04-07T06:14:25.886Z,11.50
2019-04-07T06:19:30.313Z,11.60
2019-04-07T06:24:35.075Z,11.70
2019-04-07T06:29:39.126Z,11.90
2019-04-07T06:34:44.308Z,12.00
2019-04-07T06:39:50.759Z,12.30
2019-04-07T06:44:54.279Z,12.40
2019-04-07T06:50:16.882Z,12.60
2019-04-07T06:55:27.649Z,12.80
2019-04-07T07:00:31.301Z,13.00
2019-04-07T07:05:53.646Z,13.20
2019-04-07T07:11:07.691Z,13.40
2019-04-07T07:16:29.912Z,13.60
2019-04-07T07:21:44.630Z,13.80
2019-04-07T07:26:49.426Z,14.30
2019-04-07T07:31:59.727Z,14.70
2019-04-07T07:36:59.854Z,15.20
2019-04-07T07:42:04.199Z,15.90
2019-04-07T07:47:08.068Z,16.70
2019-04-07T07:52:12.589Z,17.70
2019-04-07T07:57:20.775Z,18.40
2019-04-07T08:02:22.081Z,19.20
2019-04-07T08:07:26.031Z,19.70
2019-04-07T08:12:32.353Z,20.20
2019-04-07T08:17:35.603Z,20.70
2019-04-07T08:22:43.184Z,21.30
2019-04-07T08:27:45.263Z,21.90
2019-04-07T08:32:50.017Z,22.00
2019-04-07T08:37:54.517Z,22.50
2019-04-07T08:42:59.356Z,23.20
2019-04-07T08:48:04.105Z,23.60
2019-04-07T08:53:10.347Z,24.10
2019-04-07T08:58:23.628Z,24.20
2019-04-07T09:03:19.269Z,24.10
2019-04-07T09:08:24.062Z,24.40
2019-04-07T09:13:31.641Z,25.00
2019-04-07T09:19:01.092Z,25.20
2019-04-07T09:24:18.403Z,25.20
2019-04-07T09:29:26.064Z,25.70
2019-04-07T09:34:31.247Z,26.10
2019-04-07T09:39:52.842Z,26.10
2019-04-07T09:44:52.880Z,26.30
2019-04-07T09:50:00.439Z,26.40
2019-04-07T09:55:10.474Z,26.80
2019-04-07T10:00:21.650Z,27.10
2019-04-07T10:05:42.425Z,27.00
2019-04-07T10:11:03.217Z,27.00
2019-04-07T10:16:25.753Z,27.00
2019-04-07T10:21:47.538Z,27.30
2019-04-07T10:26:53.684Z,27.20
2019-04-07T10:32:06.307Z,27.60
2019-04-07T10:37:28.280Z,27.80
2019-04-07T10:42:45.906Z,28.30
2019-04-07T10:47:52.351Z,28.50
2019-04-07T10:53:14.342Z,28.40
2019-04-07T10:58:23.048Z,27.90
2019-04-07T11:03:29.359Z,28.20
2019-04-07T11:08:37.709Z,28.60
2019-04-07T11:13:59.752Z,28.50
2019-04-07T11:19:12.840Z,28.50
2019-04-07T11:24:30.290Z,28.40
2019-04-07T11:29:43.719Z,28.50
2019-04-07T11:34:52.935Z,28.60
2019-04-07T11:40:05.069Z,28.50
2019-04-07T11:45:27.219Z,28.20
2019-04-07T11:50:32.767Z,28.50
2019-04-07T11:55:50.988Z,28.40
2019-04-07T12:01:14.779Z,27.90
2019-04-07T12:06:36.538Z,27.30
2019-04-07T12:12:00.960Z,27.20
2019-04-07T12:17:13.798Z,26.80
2019-04-07T12:22:35.581Z,26.40
2019-04-07T12:27:44.625Z,26.20
2019-04-07T12:33:07.223Z,25.50
2019-04-07T12:38:14.332Z,25.00
2019-04-07T12:43:35.979Z,24.90
2019-04-07T12:48:58.614Z,24.40
2019-04-07T12:54:07.395Z,23.80
2019-04-07T12:59:18.290Z,23.70
2019-04-07T13:04:25.513Z,23.60
2019-04-07T13:09:33.353Z,23.50
2019-04-07T13:14:44.341Z,23.60
2019-04-07T13:20:02.286Z,23.40
2019-04-07T13:25:24.018Z,23.40
2019-04-07T13:30:28.995Z,23.60
2019-04-07T13:35:50.865Z,23.70
2019-04-07T13:41:15.934Z,23.70
2019-04-07T13:46:31.855Z,23.50
2019-04-07T13:51:44.805Z,23.50
2019-04-07T13:57:05.529Z,23.60
2019-04-07T14:02:14.303Z,23.60
2019-04-07T14:07:26.293Z,23.60
2019-04-07T14:12:38.957Z,23.30
2019-04-07T14:17:53.631Z,23.30
2019-04-07T14:22:59.362Z,23.40
2019-04-07T14:28:16.946Z,23.50
2019-04-07T14:33:38.089Z,23.70
2019-04-07T14:38:46.665Z,23.30
2019-04-07T14:43:52.867Z,23.10
2019-04-07T14:49:01.472Z,23.00
2019-04-07T14:54:16.323Z,23.00
2019-04-07T14:59:38.434Z,23.00
2019-04-07T15:04:49.941Z,22.90
2019-04-07T15:09:58.450Z,23.00
2019-04-07T15:15:07.551Z,23.00
2019-04-07T15:20:11.690Z,23.00
2019-04-07T15:25:16.332Z,23.10
2019-04-07T15:30:22.182Z,23.00
2019-04-07T15:35:27.572Z,22.90
2019-04-07T15:40:35.031Z,22.90
2019-04-07T15:45:41.282Z,22.90
2019-04-07T15:50:43.335Z,22.80
2019-04-07T15:55:53.499Z,22.70
2019-04-07T16:00:54.880Z,22.60
2019-04-07T16:05:59.174Z,22.50
2019-04-07T16:11:03.788Z,22.40
2019-04-07T16:16:07.903Z,22.30
2019-04-07T16:21:12.477Z,22.20
2019-04-07T16:26:17.516Z,22.00
2019-04-07T16:31:24.178Z,21.70
2019-04-07T16:36:28.721Z,21.60
2019-04-07T16:41:34.991Z,21.40
2019-04-07T16:46:40.310Z,21.10
2019-04-07T16:51:44.769Z,20.90
2019-04-07T16:56:52.117Z,20.70
2019-04-07T17:01:55.008Z,20.60
2019-04-07T17:07:03.622Z,20.40
2019-04-07T17:12:04.537Z,20.30
2019-04-07T17:17:08.575Z,20.10
2019-04-07T17:22:15.485Z,19.90
2019-04-07T17:27:18.307Z,19.80
2019-04-07T17:32:23.140Z,19.60
2019-04-07T17:37:28.512Z,19.30
2019-04-07T17:42:33.394Z,19.20
2019-04-07T17:47:39.349Z,19.00
2019-04-07T17:52:48.475Z,18.80
2019-04-07T17:57:59.835Z,18.70
2019-04-07T18:03:08.520Z,18.60
2019-04-07T18:08:25.201Z,18.50
2019-04-07T18:13:50.237Z,18.40
2019-04-07T18:18:57.939Z,18.20
2019-04-07T18:24:02.386Z,18.10
2019-04-07T18:29:25.666Z,17.90
2019-04-07T18:34:42.915Z,17.80
2019-04-07T18:39:57.443Z,17.70
2019-04-07T18:45:12.461Z,17.60
2019-04-07T18:50:24.009Z,17.50
2019-04-07T18:55:39.069Z,17.40
2019-04-07T19:00:48.232Z,17.30
2019-04-07T19:05:56.548Z,17.20
2019-04-07T19:11:12.246Z,17.10
2019-04-07T19:16:23.228Z,17.00
2019-04-07T19:21:38.769Z,16.90
2019-04-07T19:27:11.983Z,16.80
2019-04-07T19:32:17.981Z,16.70
2019-04-07T19:37:23.058Z,16.60
2019-04-07T19:42:38.610Z,16.50
2019-04-07T19:47:42.224Z,16.40
2019-04-07T19:53:10.211Z,16.40
2019-04-07T19:58:32.651Z,16.30
2019-04-07T20:03:42.469Z,16.20
2019-04-07T20:08:53.993Z,16.20
2019-04-07T20:14:10.478Z,16.10
2019-04-07T20:19:13.041Z,16.00
2019-04-07T20:24:24.654Z,15.90
2019-04-07T20:29:34.123Z,15.90
2019-04-07T20:34:54.886Z,15.70
2019-04-07T20:40:09.771Z,15.70
2019-04-07T20:45:27.707Z,15.60
2019-04-07T20:50:43.709Z,15.50
2019-04-07T20:55:58.225Z,15.30
2019-04-07T21:01:18.951Z,15.30
2019-04-07T21:06:26.583Z,15.30
2019-04-07T21:11:29.719Z,15.20
2019-04-07T21:16:46.850Z,15.20
2019-04-07T21:21:55.862Z,15.10
2019-04-07T21:27:02.464Z,15.20
2019-04-07T21:32:19.883Z,15.10
2019-04-07T21:37:28.452Z,15.00
2019-04-07T21:42:36.930Z,14.90
2019-04-07T21:47:46.079Z,14.70
2019-04-07T21:52:54.492Z,14.70
2019-04-07T21:57:59.797Z,14.50
2019-04-07T22:03:23.513Z,14.40
2019-04-07T22:08:31.299Z,14.30
2019-04-07T22:13:35.561Z,14.40
2019-04-07T22:18:40.530Z,14.30
2019-04-07T22:23:44.421Z,14.30
2019-04-07T22:28:48.338Z,14.20
2019-04-07T22:33:55.532Z,14.10
2019-04-07T22:39:00.637Z,14.10
2019-04-07T22:44:03.858Z,14.00
2019-04-07T22:49:07.894Z,14.00
2019-04-07T22:54:12.012Z,14.00
2019-04-07T22:59:15.936Z,13.80
2019-04-07T23:04:20.276Z,13.80
2019-04-07T23:09:25.003Z,13.80
2019-04-07T23:14:28.978Z,13.80
2019-04-07T23:19:32.851Z,13.70
2019-04-07T23:24:36.941Z,13.70
2019-04-07T23:29:40.903Z,13.60
2019-04-07T23:34:45.669Z,13.60
2019-04-07T23:39:49.681Z,13.60
2019-04-07T23:44:53.592Z,13.60
2019-04-07T23:49:57.505Z,13.60
2019-04-07T23:55:02.370Z,13.50
